Time;durP1;ratioP1;P1;durP2;ratioP2;P2;SDS_P1;SDS_P2;PMS_P1;PMS_P2;Temp;Humidity;BMP_temperature;BMP_pressure;BME280_temperature;BME280_humidity;BME280_pressure;Samples;Min_cycle;Max_cycle;Signal;HPM_P1;HPM_P2
2022/10/12 00:02:10;;;;;;;;;;;;;;;-144.99;100.00;52427.72;5068451;28;19931;-72
2022/10/12 00:04:37;;;;;;;;;;;;;;;-144.99;100.00;52403.25;5071550;28;20023;-72
2022/10/12 00:07:04;;;;;;;;;;;;;;;-144.99;100.00;52415.47;5070208;28;20327;-72
2022/10/12 00:09:31;;;;;;;;;;;;;;;-144.99;100.00;52407.31;5064547;28;19928;-72
2022/10/12 00:11:57;;;;;;;;;;;;;;;-144.99;100.00;52431.78;5079262;28;19925;-72
2022/10/12 00:14:23;;;;;;;;;;;;;;;-144.99;100.00;52374.72;5076806;28;20296;-72
2022/10/12 00:16:50;;;;;;;;;;;;;;;-144.99;100.00;52448.09;5069855;28;19929;-76
2022/10/12 00:19:16;;;;;;;;;;;;;;;-144.99;100.00;52407.31;5064177;28;19930;-71
2022/10/12 00:21:42;;;;;;;;;;;;;;;-144.99;100.00;52427.72;5063862;28;20011;-71
2022/10/12 00:24:10;;;;;;;;;;;;;;;-144.99;100.00;52435.88;5081782;28;20006;-73
2022/10/12 00:26:36;;;;;;;;;;;;;;;-144.99;100.00;52409.38;5064939;28;19925;-72
2022/10/12 00:29:03;;;;;;;;;;;;;;;-144.99;100.00;52431.78;5064467;28;19931;-72
2022/10/12 00:31:30;;;;;;;;;;;;;;;-144.99;100.00;52452.16;5054237;28;19935;-71
2022/10/12 00:33:59;;;;;;;;;;;;;;;-144.99;100.00;52417.53;5074485;28;19928;-72
2022/10/12 00:36:27;;;;;;;;;;;;;;;-144.99;100.00;52401.22;5074826;28;20376;-72
2022/10/12 00:38:55;;;;;;;;;;;;;;;-144.99;100.00;52419.56;5069647;28;19924;-75
2022/10/12 00:41:24;;;;;;;;;;;;;;;-144.99;100.00;52444.03;5069905;28;19931;-75
2022/10/12 00:43:51;;;;;;;;;;;;;;;-144.99;100.00;52431.78;5073062;28;19940;-75
2022/10/12 00:46:20;;;;;;;;;;;;;;;-144.99;100.00;52435.88;5072552;28;19924;-75
2022/10/12 00:48:49;;;;;;;;;;;;;;;-144.99;100.00;52448.09;5094353;28;19971;-75
2022/10/12 00:51:16;;;;;;;;;;;;;;;-144.99;100.00;52374.72;5086055;28;19934;-74
2022/10/12 00:53:45;;;;;;;;;;;;;;;-144.99;100.00;52456.25;5080258;28;20395;-74
2022/10/12 00:56:13;;;;;;;;;;;;;;;-144.99;100.00;52476.63;5062418;28;19935;-72
2022/10/12 00:58:41;;;;;;;;;;;;;;;-144.99;100.00;52407.31;5076830;28;19924;-75
2022/10/12 01:01:07;;;;;;;;;;;;;;;-144.99;100.00;52446.06;5076243;28;19989;-73
2022/10/12 01:03:35;;;;;;;;;;;;;;;-144.99;100.00;52423.63;5077967;28;19934;-74
2022/10/12 01:06:01;;;;;;;;;;;;;;;-144.99;100.00;52382.88;5061423;28;19936;-73
2022/10/12 01:08:28;;;;;;;;;;;;;;;-144.99;100.00;52427.72;5073124;28;19940;-75
2022/10/12 01:10:54;;;;;;;;;;;;;;;-144.99;100.00;52423.63;5070476;28;20097;-74
2022/10/12 01:13:21;;;;;;;;;;;;;;;-144.99;100.00;52393.06;5068907;28;19929;-72
2022/10/12 01:15:51;;;;;;;;;;;;;;;-144.99;100.00;52391.03;5073882;28;20402;-72
2022/10/12 01:18:20;;;;;;;;;;;;;;;-144.99;100.00;52431.78;5069132;28;19925;-72
2022/10/12 01:21:07;;;;;;;;;;;;;;;-144.99;100.00;52419.56;5069677;28;20422;-71
2022/10/12 01:23:45;;;;;;;;;;;;;;;-144.99;100.00;52437.91;5064682;28;19924;-72
2022/10/12 01:26:21;;;;;;;;;;;;;;;-144.99;100.00;52421.59;5067056;28;20441;-72
2022/10/12 01:28:55;;;;;;;;;;;;;;;-144.99;100.00;52388.97;5061049;28;19932;-74
2022/10/12 01:31:25;;;;;;;;;;;;;;;-144.99;100.00;52444.03;5077536;28;20052;-74
2022/10/12 01:33:57;;;;;;;;;;;;;;;-144.99;100.00;52391.03;5064664;28;20422;-69
2022/10/12 01:36:28;;;;;;;;;;;;;;;-144.99;100.00;52380.84;5066193;28;19925;-70
2022/10/12 01:38:59;;;;;;;;;;;;;;;-144.99;100.00;52374.72;5062104;28;20003;-71
2022/10/12 01:41:29;;;;;;;;;;;;;;;-144.99;100.00;52439.94;5074315;28;19924;-71
2022/10/12 01:43:55;;;;;;;;;;;;;;;-144.99;100.00;52419.56;5061807;28;19929;-70
2022/10/12 01:46:45;;;;;;;;;;;;;;;-144.99;100.00;52425.66;5074456;28;19913;-73
2022/10/12 01:49:13;;;;;;;;;;;;;;;-144.99;100.00;52411.41;5089206;28;19976;-73
2022/10/12 01:51:46;;;;;;;;;;;;;;;-144.99;100.00;52378.78;5069585;28;19924;-72
2022/10/12 01:54:17;;;;;;;;;;;;;;;-144.99;100.00;52407.31;5073007;28;19924;-72
2022/10/12 01:56:45;;;;;;;;;;;;;;;-144.99;100.00;52431.78;5067230;28;19924;-72
2022/10/12 01:59:15;;;;;;;;;;;;;;;-144.99;100.00;52425.66;5067256;28;19928;-72
2022/10/12 02:01:42;;;;;;;;;;;;;;;-144.99;100.00;52417.53;5066262;28;19929;-73
2022/10/12 02:04:17;;;;;;;;;;;;;;;-144.99;100.00;52417.53;5065341;28;19932;-71
2022/10/12 02:06:45;;;;;;;;;;;;;;;-144.99;100.00;52391.03;5071563;28;19925;-71
2022/10/12 02:09:17;;;;;;;;;;;;;;;-144.99;100.00;52415.47;5067147;28;19928;-72
2022/10/12 02:11:45;;;;;;;;;;;;;;;-144.99;100.00;52415.47;5066825;28;19944;-71
2022/10/12 02:14:14;;;;;;;;;;;;;;;-144.99;100.00;52464.41;5070664;28;19928;-72
2022/10/12 02:16:43;;;;;;;;;;;;;;;-144.99;100.00;52411.41;5076413;28;19925;-71
2022/10/12 02:19:13;;;;;;;;;;;;;;;-144.99;100.00;52401.22;5073368;28;20299;-71
2022/10/12 02:21:40;;;;;;;;;;;;;;;-144.99;100.00;52354.34;5071274;28;19925;-72
2022/10/12 02:24:09;;;;;;;;;;;;;;;-144.99;100.00;52419.56;5072482;28;19931;-71
2022/10/12 02:26:37;;;;;;;;;;;;;;;-144.99;100.00;52403.25;5069213;28;20271;-71
2022/10/12 02:29:06;;;;;;;;;;;;;;;-144.99;100.00;52431.78;5081479;28;19928;-72
2022/10/12 02:31:35;;;;;;;;;;;;;;;-144.99;100.00;52386.94;5054345;28;19924;-71
2022/10/12 02:34:06;;;;;;;;;;;;;;;-144.99;100.00;52382.88;5066934;28;19924;-71
2022/10/12 02:36:38;;;;;;;;;;;;;;;-144.99;100.00;52395.09;5070485;28;19928;-72
2022/10/12 02:39:08;;;;;;;;;;;;;;;-144.99;100.00;52411.41;5067040;28;19925;-77
2022/10/12 02:41:38;;;;;;;;;;;;;;;-144.99;100.00;52423.63;5073096;28;19969;-78
2022/10/12 02:44:07;;;;;;;;;;;;;;;-144.99;100.00;52444.03;5077066;28;20015;-79
2022/10/12 02:46:34;;;;;;;;;;;;;;;-144.99;100.00;52378.78;5075297;28;19924;-74
2022/10/12 02:49:03;;;;;;;;;;;;;;;-144.99;100.00;52354.34;5070210;28;19935;-74
2022/10/12 02:51:31;;;;;;;;;;;;;;;-144.99;100.00;52407.31;5064536;28;19924;-73
2022/10/12 02:53:59;;;;;;;;;;;;;;;-144.99;100.00;52448.09;5064216;28;19928;-73
2022/10/12 02:56:25;;;;;;;;;;;;;;;-144.99;100.00;52397.13;5062081;28;20331;-73
2022/10/12 02:58:52;;;;;;;;;;;;;;;-144.99;100.00;52456.25;5071207;28;20402;-74
2022/10/12 03:01:18;;;;;;;;;;;;;;;-144.99;100.00;52386.94;5073302;28;19947;-73
2022/10/12 03:03:45;;;;;;;;;;;;;;;-144.99;100.00;52431.78;5067133;28;19931;-73
2022/10/12 03:06:11;;;;;;;;;;;;;;;-144.99;100.00;52427.72;5076847;28;19939;-73
2022/10/12 03:08:38;;;;;;;;;;;;;;;-144.99;100.00;52435.88;5072091;28;19928;-74
2022/10/12 03:11:07;;;;;;;;;;;;;;;-144.99;100.00;52431.78;5062449;28;20206;-74
2022/10/12 03:13:34;;;;;;;;;;;;;;;-144.99;100.00;52399.19;5070143;28;19932;-74
2022/10/12 03:16:01;;;;;;;;;;;;;;;-144.99;100.00;52391.03;5069188;28;19950;-73
2022/10/12 03:18:27;;;;;;;;;;;;;;;-144.99;100.00;52435.88;5071724;28;19928;-73
2022/10/12 03:20:54;;;;;;;;;;;;;;;-144.99;100.00;52421.59;5076703;28;19946;-72
2022/10/12 03:23:20;;;;;;;;;;;;;;;-144.99;100.00;52399.19;5069957;28;19924;-73
2022/10/12 03:25:46;;;;;;;;;;;;;;;-144.99;100.00;52419.56;5082461;28;19931;-74
2022/10/12 03:28:14;;;;;;;;;;;;;;;-144.99;100.00;52386.94;5078366;28;20310;-74
2022/10/12 03:30:40;;;;;;;;;;;;;;;-144.99;100.00;52415.47;5066476;28;19925;-75
2022/10/12 03:33:07;;;;;;;;;;;;;;;-144.99;100.00;52431.78;5058364;28;19924;-74
2022/10/12 03:35:33;;;;;;;;;;;;;;;-144.99;100.00;52391.03;5071574;28;19924;-75
2022/10/12 03:37:59;;;;;;;;;;;;;;;-144.99;100.00;52427.72;5077344;28;19920;-78
2022/10/12 03:40:26;;;;;;;;;;;;;;;-144.99;100.00;52407.31;5091599;28;19927;-79
2022/10/12 03:42:52;;;;;;;;;;;;;;;-144.99;100.00;52423.63;5097274;27;19959;-77
2022/10/12 03:45:20;;;;;;;;;;;;;;;-144.99;100.00;52427.72;5073272;28;20011;-74
2022/10/12 03:47:46;;;;;;;;;;;;;;;-144.99;100.00;52401.22;5069796;28;20031;-74
2022/10/12 03:50:13;;;;;;;;;;;;;;;-144.99;100.00;52393.06;5070264;28;19928;-76
2022/10/12 03:52:39;;;;;;;;;;;;;;;-144.99;100.00;52407.31;5077287;28;19924;-75
2022/10/12 03:55:06;;;;;;;;;;;;;;;-144.99;100.00;52423.63;5064080;28;19951;-73
2022/10/12 03:57:33;;;;;;;;;;;;;;;-144.99;100.00;52419.56;5071310;28;20020;-74
2022/10/12 03:59:59;;;;;;;;;;;;;;;-144.99;100.00;52441.97;5059310;28;19925;-73
2022/10/12 04:02:27;;;;;;;;;;;;;;;-144.99;100.00;52391.03;5073272;28;19931;-73
2022/10/12 04:04:53;;;;;;;;;;;;;;;-144.99;100.00;52395.09;5075358;28;19930;-74
2022/10/12 04:07:20;;;;;;;;;;;;;;;-144.99;100.00;52409.38;5070181;28;19931;-73
2022/10/12 04:09:46;;;;;;;;;;;;;;;-144.99;100.00;52395.09;5070458;28;19928;-73
2022/10/12 04:12:12;;;;;;;;;;;;;;;-144.99;100.00;52382.88;5071319;28;20009;-73
2022/10/12 04:14:39;;;;;;;;;;;;;;;-144.99;100.00;52395.09;5072932;28;19931;-72
2022/10/12 04:17:05;;;;;;;;;;;;;;;-144.99;100.00;52407.31;5073998;28;19931;-71
2022/10/12 04:19:33;;;;;;;;;;;;;;;-144.99;100.00;52435.88;5071469;28;19925;-71
2022/10/12 04:21:59;;;;;;;;;;;;;;;-144.99;100.00;52378.78;5059106;28;19929;-74
2022/10/12 04:24:26;;;;;;;;;;;;;;;-144.99;100.00;52386.94;5071127;28;19925;-74
2022/10/12 04:26:52;;;;;;;;;;;;;;;-144.99;100.00;52403.25;5070703;28;19925;-76
2022/10/12 04:29:18;;;;;;;;;;;;;;;-144.99;100.00;52415.47;5079526;28;19950;-73
2022/10/12 04:31:45;;;;;;;;;;;;;;;-144.99;100.00;52386.94;5069763;28;19931;-75
2022/10/12 04:34:11;;;;;;;;;;;;;;;-144.99;100.00;52439.94;5081188;28;19919;-75
2022/10/12 04:36:39;;;;;;;;;;;;;;;-144.99;100.00;52395.09;5094257;28;19930;-76
2022/10/12 04:39:05;;;;;;;;;;;;;;;-144.99;100.00;52431.78;5099248;28;19934;-74
2022/10/12 04:41:32;;;;;;;;;;;;;;;-144.99;100.00;52435.88;5067048;28;19932;-73
2022/10/12 04:43:58;;;;;;;;;;;;;;;-144.99;100.00;52378.78;5068940;28;19977;-74
2022/10/12 04:46:25;;;;;;;;;;;;;;;-144.99;100.00;52411.41;5072024;28;19925;-73
2022/10/12 04:48:51;;;;;;;;;;;;;;;-144.99;100.00;52391.03;5068905;28;19931;-74
2022/10/12 04:51:17;;;;;;;;;;;;;;;-144.99;100.00;52415.47;5081068;28;19928;-75
2022/10/12 04:53:45;;;;;;;;;;;;;;;-144.99;100.00;52413.44;5082566;28;19935;-74
2022/10/12 04:56:11;;;;;;;;;;;;;;;-144.99;100.00;52405.28;5075381;28;20015;-75
2022/10/12 04:58:38;;;;;;;;;;;;;;;-144.99;100.00;52399.19;5077184;28;19932;-75
2022/10/12 05:01:04;;;;;;;;;;;;;;;-144.99;100.00;52423.63;5079045;28;19931;-74
2022/10/12 05:03:30;;;;;;;;;;;;;;;-144.99;100.00;52421.59;5086522;28;19924;-74
2022/10/12 05:05:57;;;;;;;;;;;;;;;-144.99;100.00;52403.25;5065045;28;20701;-75
2022/10/12 05:08:23;;;;;;;;;;;;;;;-144.99;100.00;52448.09;4367865;28;10000729;-75
2022/10/12 05:10:51;;;;;;;;;;;;;;;-144.99;100.00;52411.41;5072622;28;19935;-74
2022/10/12 05:13:17;;;;;;;;;;;;;;;-144.99;100.00;52419.56;5064682;28;19936;-76
2022/10/12 05:15:44;;;;;;;;;;;;;;;-144.99;100.00;52454.22;5078287;28;19939;-75
2022/10/12 05:18:11;;;;;;;;;;;;;;;-144.99;100.00;52441.97;5056533;28;19939;-75
2022/10/12 05:20:37;;;;;;;;;;;;;;;-144.99;100.00;52399.19;5065268;28;19924;-76
2022/10/12 05:23:03;;;;;;;;;;;;;;;-144.99;100.00;52433.81;5057850;28;20249;-76
2022/10/12 05:25:30;;;;;;;;;;;;;;;-144.99;100.00;52399.19;5065471;28;19929;-75
2022/10/12 05:27:57;;;;;;;;;;;;;;;-144.99;100.00;52429.75;5072632;28;19929;-75
2022/10/12 05:30:24;;;;;;;;;;;;;;;-144.99;100.00;52431.78;5058504;28;20318;-74
2022/10/12 05:32:50;;;;;;;;;;;;;;;-144.99;100.00;52403.25;5054225;28;20423;-75
2022/10/12 05:35:17;;;;;;;;;;;;;;;-144.99;100.00;52425.66;5068826;28;19928;-74
2022/10/12 05:37:43;;;;;;;;;;;;;;;-144.99;100.00;52423.63;5071030;28;20272;-75
2022/10/12 05:40:10;;;;;;;;;;;;;;;-144.99;100.00;52431.78;5060196;28;19929;-74
2022/10/12 05:42:36;;;;;;;;;;;;;;;-144.99;100.00;52403.25;5063621;28;19936;-76
2022/10/12 05:45:04;;;;;;;;;;;;;;;-144.99;100.00;52435.88;5065561;28;19950;-75
2022/10/12 05:47:31;;;;;;;;;;;;;;;-144.99;100.00;52419.56;5066162;28;19935;-75
2022/10/12 05:49:57;;;;;;;;;;;;;;;-144.99;100.00;52415.47;5073141;28;19935;-75
2022/10/12 05:52:23;;;;;;;;;;;;;;;-144.99;100.00;52444.03;5062852;28;20428;-74
2022/10/12 05:54:50;;;;;;;;;;;;;;;-144.99;100.00;52460.31;5053555;28;20372;-75
2022/10/12 05:57:16;;;;;;;;;;;;;;;-144.99;100.00;52399.19;5062679;28;19929;-75
2022/10/12 05:59:42;;;;;;;;;;;;;;;-144.99;100.00;52462.34;5057083;28;20015;-74
2022/10/12 06:02:12;;;;;;;;;;;;;;;-144.99;100.00;52399.19;5064774;28;19940;-75
2022/10/12 06:04:39;;;;;;;;;;;;;;;-144.99;100.00;52399.19;5075477;28;19935;-74
2022/10/12 06:07:05;;;;;;;;;;;;;;;-144.99;100.00;52407.31;5064426;28;19951;-74
2022/10/12 06:09:31;;;;;;;;;;;;;;;-144.99;100.00;52423.63;5060731;28;19925;-75
2022/10/12 06:11:58;;;;;;;;;;;;;;;-144.99;100.00;52403.25;5069036;28;19932;-75
2022/10/12 06:14:24;;;;;;;;;;;;;;;-144.99;100.00;52395.09;5076599;28;20311;-74
2022/10/12 06:16:50;;;;;;;;;;;;;;;-144.99;100.00;52403.25;5060182;28;20004;-75
2022/10/12 06:19:18;;;;;;;;;;;;;;;-144.99;100.00;52382.88;5072793;28;19929;-76
2022/10/12 06:21:44;;;;;;;;;;;;;;;-144.99;100.00;52372.69;5054697;28;19935;-74
2022/10/12 06:24:11;;;;;;;;;;;;;;;-144.99;100.00;52399.19;5066239;28;19924;-74
2022/10/12 06:26:37;;;;;;;;;;;;;;;-144.99;100.00;52391.03;5075247;28;19928;-77
2022/10/12 06:29:04;;;;;;;;;;;;;;;-144.99;100.00;52399.19;5074843;28;19939;-75
2022/10/12 06:31:31;;;;;;;;;;;;;;;-144.99;100.00;52366.56;5055301;28;20272;-74
2022/10/12 06:33:57;;;;;;;;;;;;;;;-144.99;100.00;52395.09;5067206;28;19929;-74
2022/10/12 06:36:25;;;;;;;;;;;;;;;-144.99;100.00;52399.19;5066268;28;19928;-74
2022/10/12 06:38:52;;;;;;;;;;;;;;;-144.99;100.00;52338.03;5077291;28;19928;-73
2022/10/12 06:41:18;;;;;;;;;;;;;;;-144.99;100.00;52374.72;5051655;28;19954;-74
2022/10/12 06:43:44;;;;;;;;;;;;;;;-144.99;100.00;52391.03;5066378;28;19951;-75
2022/10/12 06:46:11;;;;;;;;;;;;;;;-144.99;100.00;52370.63;5060326;28;20011;-74
2022/10/12 06:48:37;;;;;;;;;;;;;;;-144.99;100.00;52376.75;5063700;28;19989;-73
2022/10/12 06:51:04;;;;;;;;;;;;;;;-144.99;100.00;52374.72;5075614;28;20395;-74
2022/10/12 06:53:33;;;;;;;;;;;;;;;-144.99;100.00;52362.50;5070895;28;20284;-74
2022/10/12 06:56:00;;;;;;;;;;;;;;;-144.99;100.00;52388.97;5062726;28;20384;-74
2022/10/12 06:58:26;;;;;;;;;;;;;;;-144.99;100.00;52415.47;5067693;28;19928;-73
2022/10/12 07:00:52;;;;;;;;;;;;;;;-144.99;100.00;52386.94;5078356;28;19936;-74
2022/10/12 07:03:19;;;;;;;;;;;;;;;-144.99;100.00;52366.56;5068881;28;19929;-75
2022/10/12 07:05:45;;;;;;;;;;;;;;;-144.99;100.00;52372.69;5057001;28;19924;-74
2022/10/12 07:08:11;;;;;;;;;;;;;;;-144.99;100.00;52370.63;5063370;28;19929;-74
2022/10/12 07:10:39;;;;;;;;;;;;;;;-144.99;100.00;52415.47;5071968;28;19934;-74
2022/10/12 07:13:05;;;;;;;;;;;;;;;-144.99;100.00;52376.75;5077673;28;19927;-74
2022/10/12 07:15:32;;;;;;;;;;;;;;;-144.99;100.00;52333.94;5072571;28;19939;-74
2022/10/12 07:17:58;;;;;;;;;;;;;;;-144.99;100.00;52333.94;5064953;28;20205;-73
2022/10/12 07:20:24;;;;;;;;;;;;;;;-144.99;100.00;52370.63;5063168;28;19928;-74
2022/10/12 07:22:52;;;;;;;;;;;;;;;-144.99;99.25;52378.78;5074871;28;19935;-73
2022/10/12 07:25:18;;;;;;;;;;;;;;;-144.99;93.21;52342.09;5079955;28;19925;-72
2022/10/12 07:27:48;;;;;;;;;;;;;;;-144.99;92.78;52342.09;5079413;28;19939;-74
2022/10/12 07:30:14;;;;;;;;;;;;;;;-144.99;92.34;52378.78;5078839;28;19939;-74
2022/10/12 07:32:43;;;;;;;;;;;;;;;-144.99;88.22;52346.19;5074397;28;19928;-74
2022/10/12 07:35:09;;;;;;;;;;;;;;;-144.99;86.19;52317.66;5077049;28;20007;-74
2022/10/12 07:37:36;;;;;;;;;;;;;;;-144.99;86.00;52342.09;5073986;28;20007;-74
2022/10/12 07:40:02;;;;;;;;;;;;;;;-144.99;84.06;52319.69;5065993;28;19935;-74
2022/10/12 07:42:28;;;;;;;;;;;;;;;-144.99;82.45;52317.66;5073250;28;19938;-74
2022/10/12 07:44:56;;;;;;;;;;;;;;;-144.99;81.91;52301.34;5077665;28;19924;-75
2022/10/12 07:47:22;;;;;;;;;;;;;;;-144.99;82.01;52388.97;5069155;28;19935;-75
2022/10/12 07:49:49;;;;;;;;;;;;;;;-144.99;81.78;52350.25;5067816;28;19929;-75
2022/10/12 07:52:15;;;;;;;;;;;;;;;-144.99;82.10;52395.09;5078008;28;19924;-75
2022/10/12 07:54:42;;;;;;;;;;;;;;;-144.99;81.26;52333.94;5068479;28;19929;-75
2022/10/12 07:57:08;;;;;;;;;;;;;;;-144.99;82.67;52301.34;5076407;28;19958;-74
2022/10/12 07:59:34;;;;;;;;;;;;;;;-144.99;80.97;52342.09;5074846;28;19958;-75
2022/10/12 08:02:02;;;;;;;;;;;;;;;-144.99;78.16;52321.72;5064372;28;19928;-73
2022/10/12 08:04:29;;;;;;;;;;;;;;;-144.99;77.34;52309.50;5068662;28;19934;-75
2022/10/12 08:06:56;;;;;;;;;;;;;;;-144.99;73.18;52287.06;5062602;28;19939;-74
2022/10/12 08:09:23;;;;;;;;;;;;;;;-144.99;70.50;52297.25;5068812;28;20648;-75
2022/10/12 08:11:49;;;;;;;;;;;;;;;-144.99;69.06;52325.81;5066579;28;19929;-75
2022/10/12 08:14:16;;;;;;;;;;;;;;;-144.99;68.49;52313.56;5065656;28;19928;-75
2022/10/12 08:16:43;;;;;;;;;;;;;;;-144.99;70.20;52323.75;5066282;28;19987;-76
2022/10/12 08:19:11;;;;;;;;;;;;;;;-144.99;69.50;52327.84;5066217;28;20090;-74
2022/10/12 08:21:37;;;;;;;;;;;;;;;-144.99;68.64;52305.41;5067385;28;19924;-77
2022/10/12 08:24:04;;;;;;;;;;;;;;;-144.99;67.25;52301.34;5068797;28;19940;-75
2022/10/12 08:26:32;;;;;;;;;;;;;;;-144.99;65.61;52313.56;5075207;28;19939;-75
2022/10/12 08:28:58;;;;;;;;;;;;;;;-144.99;61.81;52285.03;5073996;28;20023;-75
2022/10/12 08:31:27;;;;;;;;;;;;;;;-144.99;60.83;52336.00;5076339;28;19933;-75
2022/10/12 08:33:54;;;;;;;;;;;;;;;-144.99;61.48;52256.50;5073033;28;19928;-74
2022/10/12 08:36:21;;;;;;;;;;;;;;;-144.99;59.29;52246.31;5076549;28;19928;-74
2022/10/12 08:38:52;;;;;;;;;;;;;;;-144.99;59.19;52252.44;5067772;28;19931;-75
2022/10/12 08:41:33;;;;;;;;;;;;;;;-144.99;59.08;52260.56;5068907;28;19929;-74
2022/10/12 08:44:07;;;;;;;;;;;;;;;-144.99;57.40;52301.34;5059336;28;19932;-76
2022/10/12 08:46:34;;;;;;;;;;;;;;;-144.99;58.68;52280.97;5064653;28;19929;-77
2022/10/12 08:49:03;;;;;;;;;;;;;;;-144.99;57.10;52276.88;5057173;28;20367;-75
2022/10/12 08:51:33;;;;;;;;;;;;;;;-144.99;55.75;52244.28;5065160;28;19933;-76
2022/10/12 08:54:03;;;;;;;;;;;;;;;-144.99;55.73;52272.81;5061701;28;19947;-77
2022/10/12 08:56:29;;;;;;;;;;;;;;;-144.99;55.91;52236.13;5065019;28;20078;-77
2022/10/12 08:58:56;;;;;;;;;;;;;;;-144.99;55.93;52260.56;5065807;28;19939;-77
2022/10/12 09:01:25;;;;;;;;;;;;;;;-144.99;54.56;52268.72;5060869;28;19933;-78
2022/10/12 09:04:06;;;;;;;;;;;;;;;-144.99;52.48;52256.50;5066321;28;19963;-77
2022/10/12 09:06:39;;;;;;;;;;;;;;;-144.99;51.96;52232.03;5063471;28;20471;-79
2022/10/12 09:09:14;;;;;;;;;;;;;;;-144.99;50.67;52240.19;5064459;28;20321;-79
2022/10/12 09:11:48;;;;;;;;;;;;;;;-144.99;50.20;52256.50;5069278;28;20224;-81
2022/10/12 09:14:17;;;;;;;;;;;;;;;-144.99;50.05;52268.72;5052774;28;19960;-80
2022/10/12 09:16:46;;;;;;;;;;;;;;;-144.99;50.37;52236.13;5054787;28;19935;-78
2022/10/12 09:19:16;;;;;;;;;;;;;;;-144.99;49.14;52260.56;5071258;28;19931;-78
2022/10/12 09:21:45;;;;;;;;;;;;;;;-144.99;49.30;52321.72;5067853;28;19929;-79
2022/10/12 09:24:14;;;;;;;;;;;;;;;-144.99;48.70;52264.66;5074790;28;19967;-79
2022/10/12 09:26:42;;;;;;;;;;;;;;;-144.99;48.73;52244.28;5061405;28;19925;-78
2022/10/12 09:29:18;;;;;;;;;;;;;;;-144.99;48.30;52227.97;5082369;28;20015;-78
2022/10/12 09:31:51;;;;;;;;;;;;;;;-144.99;47.07;52199.44;5079861;28;19985;-79
2022/10/12 09:34:18;;;;;;;;;;;;;;;-144.99;46.12;52195.34;5073870;28;19935;-79
2022/10/12 09:36:46;;;;;;;;;;;;;;;-144.99;45.86;52201.47;5074846;28;20415;-80
2022/10/12 09:39:15;;;;;;;;;;;;;;;-144.99;44.92;52195.34;5061865;28;19928;-79
2022/10/12 09:41:43;;;;;;;;;;;;;;;-144.99;43.74;52207.59;5077135;28;19931;-79
2022/10/12 09:44:14;;;;;;;;;;;;;;;-144.99;43.28;52189.25;5073551;28;19964;-80
2022/10/12 09:46:43;;;;;;;;;;;;;;;-144.99;42.73;52205.53;5074869;28;19987;-80
2022/10/12 09:49:09;;;;;;;;;;;;;;;-144.99;42.62;52174.97;5081325;28;20348;-80
2022/10/12 09:51:36;;;;;;;;;;;;;;;-144.99;41.28;52213.69;5067291;28;19932;-79
2022/10/12 09:54:05;;;;;;;;;;;;;;;-144.99;40.92;52213.69;5073270;28;20015;-78
2022/10/12 09:56:38;;;;;;;;;;;;;;;-144.99;40.61;52185.16;5059910;28;20434;-79
2022/10/12 09:59:06;;;;;;;;;;;;;;;-144.99;39.80;52168.84;5072336;28;19924;-79
2022/10/12 10:01:33;;;;;;;;;;;;;;;-144.99;40.25;52195.34;5073739;28;19951;-79
2022/10/12 10:04:08;;;;;;;;;;;;;;;-144.99;39.85;52119.94;5078259;28;19929;-79
2022/10/12 10:06:35;;;;;;;;;;;;;;;-144.99;39.79;52140.31;5076506;28;19932;-79
2022/10/12 10:09:01;;;;;;;;;;;;;;;-144.99;38.86;52164.78;5072611;28;19928;-78
2022/10/12 10:11:30;;;;;;;;;;;;;;;-144.99;37.83;52134.22;5083865;28;19995;-77
2022/10/12 10:13:57;;;;;;;;;;;;;;;-144.99;38.12;52170.91;5080430;28;19990;-78
2022/10/12 10:16:25;;;;;;;;;;;;;;;-144.99;38.27;52117.91;5087836;28;20134;-78
2022/10/12 10:18:55;;;;;;;;;;;;;;;-144.99;38.20;52113.84;5077493;28;19978;-79
2022/10/12 10:21:25;;;;;;;;;;;;;;;-144.99;37.45;52109.75;5077117;28;20398;-76
2022/10/12 10:23:53;;;;;;;;;;;;;;;-144.99;37.03;52097.53;5071632;28;20452;-79
2022/10/12 10:26:20;;;;;;;;;;;;;;;-144.99;37.43;52024.16;5072167;28;19974;-78
2022/10/12 10:28:49;;;;;;;;;;;;;;;-144.99;36.06;52032.31;5065990;28;19996;-79
2022/10/12 10:31:20;;;;;;;;;;;;;;;-144.99;35.51;52048.63;5072941;28;20190;-80
2022/10/12 10:34:02;;;;;;;;;;;;;;;-144.99;35.11;52044.53;5070772;28;20452;-78
2022/10/12 10:36:28;;;;;;;;;;;;;;;-144.99;35.06;52069.00;5075045;28;19925;-78
2022/10/12 10:38:57;;;;;;;;;;;;;;;-144.99;34.54;52064.91;5075562;28;20445;-80
2022/10/12 10:41:25;;;;;;;;;;;;;;;-144.99;34.85;52028.22;5075552;28;19933;-78
2022/10/12 10:43:53;;;;;;;;;;;;;;;-144.99;35.01;52048.63;5076795;28;19996;-80
2022/10/12 10:46:24;;;;;;;;;;;;;;;-144.99;34.97;52048.63;5091441;28;19913;-82
2022/10/12 10:48:52;;;;;;;;;;;;;;;-144.99;34.70;52038.44;5096008;28;19975;-80
2022/10/12 10:51:18;;;;;;;;;;;;;;;-144.99;34.69;52024.16;5087571;28;19938;-80
2022/10/12 10:53:46;;;;;;;;;;;;;;;-144.99;33.83;51979.31;5093577;28;19991;-78
2022/10/12 10:56:14;;;;;;;;;;;;;;;-144.99;33.54;52052.69;5072347;28;20060;-79
2022/10/12 10:58:44;;;;;;;;;;;;;;;-144.99;33.77;52089.38;5057881;28;20481;-79
2022/10/12 11:01:15;;;;;;;;;;;;;;;-144.99;33.95;52016.00;5068668;28;19963;-78
2022/10/12 11:03:48;;;;;;;;;;;;;;;-144.99;33.33;52028.22;5083453;28;19942;-80
2022/10/12 11:06:18;;;;;;;;;;;;;;;-144.99;33.17;52036.38;5076960;28;19935;-77
2022/10/12 11:08:46;;;;;;;;;;;;;;;-144.99;32.26;52030.28;5075020;28;20789;-78
2022/10/12 11:11:15;;;;;;;;;;;;;;;-144.99;32.27;52007.84;5074676;28;19924;-79
2022/10/12 11:13:55;;;;;;;;;;;;;;;-144.99;32.14;52034.34;5071186;28;19929;-80
2022/10/12 11:16:27;;;;;;;;;;;;;;;-144.99;32.87;51989.50;5076550;28;19932;-78
2022/10/12 11:18:56;;;;;;;;;;;;;;;-144.99;32.54;52024.16;5069108;28;19938;-80
2022/10/12 11:21:24;;;;;;;;;;;;;;;-144.99;31.75;51985.44;5087171;28;19955;-77
2022/10/12 11:23:52;;;;;;;;;;;;;;;-144.99;31.71;52022.13;5072770;28;20003;-79
2022/10/12 11:26:22;;;;;;;;;;;;;;;-144.99;32.41;52032.31;5076874;28;19929;-79
2022/10/12 11:28:49;;;;;;;;;;;;;;;-144.99;32.24;52011.94;5075531;28;19928;-79
2022/10/12 11:31:20;;;;;;;;;;;;;;;-144.99;31.41;51995.63;5080078;28;20396;-79
2022/10/12 11:33:48;;;;;;;;;;;;;;;-144.99;31.47;52028.22;5085376;28;19995;-80
2022/10/12 11:36:18;;;;;;;;;;;;;;;-144.99;31.95;52028.22;5085247;28;19928;-79
2022/10/12 11:38:46;;;;;;;;;;;;;;;-144.99;31.73;52016.00;5078850;28;19962;-79
2022/10/12 11:41:15;;;;;;;;;;;;;;;-144.99;31.85;52048.63;5081790;28;19970;-79
2022/10/12 11:43:46;;;;;;;;;;;;;;;-144.99;31.62;52044.53;5076260;28;20315;-79
2022/10/12 11:46:14;;;;;;;;;;;;;;;-144.99;31.61;52032.31;5074008;28;19924;-79
2022/10/12 11:48:43;;;;;;;;;;;;;;;-144.99;31.34;52022.13;5086054;28;19932;-79
2022/10/12 11:51:11;;;;;;;;;;;;;;;-144.99;31.15;51995.63;5082879;28;19924;-80
2022/10/12 11:53:43;;;;;;;;;;;;;;;-144.99;31.16;52036.38;5083928;28;19929;-79
2022/10/12 11:56:12;;;;;;;;;;;;;;;-144.99;30.93;52003.78;5090138;28;19924;-79
2022/10/12 11:58:41;;;;;;;;;;;;;;;-144.99;30.77;51954.88;5088948;28;19983;-79
2022/10/12 12:01:23;;;;;;;;;;;;;;;-144.99;30.18;51916.16;5090215;28;19923;-80
2022/10/12 12:04:11;;;;;;;;;;;;;;;-144.99;30.38;51991.56;5092311;28;20054;-79
2022/10/12 12:06:53;;;;;;;;;;;;;;;-144.99;30.27;51938.56;5076048;28;19992;-80
2022/10/12 12:09:21;;;;;;;;;;;;;;;-144.99;30.85;52003.78;5079371;28;19994;-81
2022/10/12 12:11:48;;;;;;;;;;;;;;;-144.99;30.80;51975.25;5091576;28;20386;-81
2022/10/12 12:14:33;;;;;;;;;;;;;;;-144.99;29.90;51971.16;5090989;28;19932;-80
2022/10/12 12:17:11;;;;;;;;;;;;;;;-144.99;29.97;51918.19;5077231;28;19999;-80
2022/10/12 12:19:38;;;;;;;;;;;;;;;-144.99;30.20;51958.94;5085438;28;19939;-80
2022/10/12 12:22:19;;;;;;;;;;;;;;;-144.99;31.01;52040.47;5086896;28;19975;-80
2022/10/12 12:24:54;;;;;;;;;;;;;;;-144.99;32.22;52036.38;5073946;28;20023;-80
2022/10/12 12:27:21;;;;;;;;;;;;;;;-144.99;31.63;52032.31;5075176;28;20179;-80